Time;durP1;ratioP1;P1;durP2;ratioP2;P2;SDS_P1;SDS_P2;PMS_P1;PMS_P2;Temp;Humidity;BMP_temperature;BMP_pressure;BME280_temperature;BME280_humidity;BME280_pressure;Samples;Min_cycle;Max_cycle;Signal;HPM_P1;HPM_P2
2022/11/23 00:02:24;;;;;;;;;;;7.20;76.00;;;;;;5043360;28;87138;-40
2022/11/23 00:04:50;;;;;;;;;;;7.20;75.70;;;;;;5044084;27;87364;-40
2022/11/23 00:07:16;;;;;;;;;;;7.20;76.00;;;;;;5043233;28;87644;-40
2022/11/23 00:09:41;;;;;;;;;;;7.20;75.90;;;;;;5043853;28;87052;-40
2022/11/23 00:12:07;;;;;;;;;;;7.20;75.90;;;;;;5044010;27;89444;-40
2022/11/23 00:14:32;;;;;;;;;;;7.20;75.90;;;;;;5043555;28;88228;-40
2022/11/23 00:16:57;;;;;;;;;;;7.20;76.00;;;;;;5043674;28;87047;-40
2022/11/23 00:19:23;;;;;;;;;;;7.30;75.90;;;;;;5042977;28;88031;-40
2022/11/23 00:21:48;;;;;;;;;;;7.30;75.70;;;;;;5045981;28;87640;-40
2022/11/23 00:24:14;;;;;;;;;;;7.30;75.70;;;;;;5043742;28;87271;-40
2022/11/23 00:26:39;;;;;;;;;;;7.20;75.80;;;;;;5043265;28;87970;-40
2022/11/23 00:29:05;;;;;;;;;;;7.20;75.90;;;;;;5043563;28;87172;-40
2022/11/23 00:31:30;;;;;;;;;;;7.20;76.00;;;;;;5043620;28;87320;-40
2022/11/23 00:33:56;;;;;;;;;;;7.20;76.10;;;;;;5043211;28;88138;-40
2022/11/23 00:36:23;;;;;;;;;;;7.20;76.00;;;;;;5043796;28;86388;-40
2022/11/23 00:38:49;;;;;;;;;;;7.30;75.90;;;;;;5043459;27;86984;-40
2022/11/23 00:41:15;;;;;;;;;;;7.30;75.80;;;;;;5042736;28;88179;-40
2022/11/23 00:43:41;;;;;;;;;;;7.20;76.00;;;;;;5045575;28;88441;-40
2022/11/23 00:46:10;;;;;;;;;;;7.20;75.80;;;;;;5042658;28;87632;-40
2022/11/23 00:48:36;;;;;;;;;;;7.20;76.00;;;;;;5043221;28;87110;-40
2022/11/23 00:51:02;;;;;;;;;;;7.20;76.30;;;;;;5042871;27;86956;-40
2022/11/23 00:53:28;;;;;;;;;;;7.20;76.10;;;;;;5042809;28;88429;-40
2022/11/23 00:55:54;;;;;;;;;;;7.20;75.90;;;;;;5043265;28;87131;-40
2022/11/23 00:58:20;;;;;;;;;;;7.20;76.00;;;;;;5043103;28;86872;-40
2022/11/23 01:00:46;;;;;;;;;;;7.20;76.00;;;;;;5043365;28;87218;-40
2022/11/23 01:03:11;;;;;;;;;;;7.20;75.90;;;;;;5042872;28;87219;-40
2022/11/23 01:05:37;;;;;;;;;;;7.20;75.90;;;;;;5045338;28;87458;-40
2022/11/23 01:08:03;;;;;;;;;;;7.20;76.10;;;;;;5042209;28;88040;-40
2022/11/23 01:10:29;;;;;;;;;;;7.20;76.00;;;;;;5042914;27;88121;-40
2022/11/23 01:12:54;;;;;;;;;;;7.20;76.00;;;;;;5042183;28;88371;-40
2022/11/23 01:15:20;;;;;;;;;;;7.20;75.90;;;;;;5041838;28;87136;-40
2022/11/23 01:17:45;;;;;;;;;;;7.20;76.00;;;;;;5042990;28;87660;-40
2022/11/23 01:20:10;;;;;;;;;;;7.20;76.20;;;;;;5042273;28;88047;-40
2022/11/23 01:22:36;;;;;;;;;;;7.20;76.50;;;;;;5042668;28;87050;-40
2022/11/23 01:25:01;;;;;;;;;;;7.20;76.10;;;;;;5045799;27;87116;-40
2022/11/23 01:27:27;;;;;;;;;;;7.20;76.10;;;;;;5042389;28;87098;-40
2022/11/23 01:29:52;;;;;;;;;;;7.20;75.90;;;;;;5042664;28;87441;-40
2022/11/23 01:32:18;;;;;;;;;;;7.20;76.40;;;;;;5041593;28;88826;-40
2022/11/23 01:34:43;;;;;;;;;;;7.20;76.00;;;;;;5042575;28;87471;-40
2022/11/23 01:37:09;;;;;;;;;;;7.10;76.30;;;;;;5042193;28;87510;-40
2022/11/23 01:39:34;;;;;;;;;;;7.10;76.50;;;;;;5042038;28;88011;-40
2022/11/23 01:42:00;;;;;;;;;;;7.20;76.20;;;;;;5042385;28;87239;-40
2022/11/23 01:44:29;;;;;;;;;;;7.20;76.20;;;;;;5042130;28;87345;-40
2022/11/23 01:46:59;;;;;;;;;;;7.20;76.10;;;;;;5044799;28;89151;-40
2022/11/23 01:49:26;;;;;;;;;;;7.20;76.00;;;;;;5042559;27;88553;-40
2022/11/23 01:51:54;;;;;;;;;;;7.20;76.20;;;;;;5041886;28;87338;-40
2022/11/23 01:54:22;;;;;;;;;;;7.20;76.30;;;;;;5042304;28;87088;-40
2022/11/23 01:56:59;;;;;;;;;;;7.20;76.20;;;;;;5041831;28;87975;-40
2022/11/23 01:59:25;;;;;;;;;;;7.20;76.20;;;;;;5041877;28;88135;-40
2022/11/23 02:01:51;;;;;;;;;;;7.20;76.30;;;;;;5042331;28;87195;-40
2022/11/23 02:04:21;;;;;;;;;;;7.10;76.00;;;;;;5042217;28;87331;-40
2022/11/23 02:06:46;;;;;;;;;;;7.20;76.70;;;;;;5041511;28;89259;-40
2022/11/23 02:09:13;;;;;;;;;;;7.10;76.30;;;;;;5044780;28;87018;-40
2022/11/23 02:11:38;;;;;;;;;;;7.20;76.50;;;;;;5041659;28;87275;-40
2022/11/23 02:14:04;;;;;;;;;;;7.20;76.40;;;;;;5042600;28;86413;-40
2022/11/23 02:16:29;;;;;;;;;;;7.10;76.20;;;;;;5042151;28;86893;-40
2022/11/23 02:18:55;;;;;;;;;;;7.10;76.10;;;;;;5041581;28;88390;-40
2022/11/23 02:21:20;;;;;;;;;;;7.20;76.40;;;;;;5041260;28;87929;-40
2022/11/23 02:23:52;;;;;;;;;;;7.10;76.10;;;;;;5042216;28;88160;-40
2022/11/23 02:26:20;;;;;;;;;;;7.20;76.20;;;;;;5043762;27;89502;-40
2022/11/23 02:28:51;;;;;;;;;;;7.20;76.40;;;;;;5045418;28;87283;-40
2022/11/23 02:31:17;;;;;;;;;;;7.20;76.50;;;;;;5047933;27;87353;-40
2022/11/23 02:33:42;;;;;;;;;;;7.20;76.30;;;;;;5045322;28;87174;-40
2022/11/23 02:36:26;;;;;;;;;;;7.20;76.20;;;;;;5045346;28;86935;-40
2022/11/23 02:38:53;;;;;;;;;;;7.10;76.30;;;;;;5045495;28;87412;-40
2022/11/23 02:41:18;;;;;;;;;;;7.10;76.30;;;;;;5044825;28;87144;-40
2022/11/23 02:43:45;;;;;;;;;;;7.10;76.10;;;;;;5045199;28;87181;-40
2022/11/23 02:46:12;;;;;;;;;;;7.10;76.50;;;;;;5043516;28;89743;-40
2022/11/23 02:48:37;;;;;;;;;;;7.20;76.40;;;;;;5044779;28;87112;-40
2022/11/23 02:51:03;;;;;;;;;;;7.10;76.10;;;;;;5045143;28;87572;-40
2022/11/23 02:53:28;;;;;;;;;;;7.10;76.30;;;;;;5047764;28;87297;-40
2022/11/23 02:55:53;;;;;;;;;;;7.10;76.30;;;;;;5045171;28;87273;-40
2022/11/23 02:58:19;;;;;;;;;;;7.20;76.40;;;;;;5044698;28;87233;-40
2022/11/23 03:00:44;;;;;;;;;;;7.10;76.40;;;;;;5044476;28;87202;-40
2022/11/23 03:03:10;;;;;;;;;;;7.10;76.60;;;;;;5045400;28;87442;-40
2022/11/23 03:05:35;;;;;;;;;;;7.10;76.10;;;;;;5044394;28;87395;-40
2022/11/23 03:08:01;;;;;;;;;;;7.10;76.30;;;;;;5044895;28;87112;-40
2022/11/23 03:10:26;;;;;;;;;;;7.10;76.30;;;;;;5044398;28;88729;-40
2022/11/23 03:12:53;;;;;;;;;;;7.10;76.40;;;;;;5044243;28;88449;-40
2022/11/23 03:15:18;;;;;;;;;;;7.20;76.00;;;;;;5047340;28;86897;-40
2022/11/23 03:17:44;;;;;;;;;;;7.10;76.30;;;;;;5044299;28;88881;-40
2022/11/23 03:20:09;;;;;;;;;;;7.10;76.40;;;;;;5042999;28;87174;-40
2022/11/23 03:22:35;;;;;;;;;;;7.10;76.40;;;;;;5044631;27;87402;-40
2022/11/23 03:25:00;;;;;;;;;;;7.10;76.60;;;;;;5043956;28;89516;-40
2022/11/23 03:27:26;;;;;;;;;;;7.10;76.40;;;;;;5045038;28;86384;-40
2022/11/23 03:29:51;;;;;;;;;;;7.10;76.90;;;;;;5044183;27;88197;-40
2022/11/23 03:32:17;;;;;;;;;;;7.10;76.40;;;;;;5044035;28;87105;-40
2022/11/23 03:34:42;;;;;;;;;;;7.10;76.10;;;;;;5046694;28;88074;-40
2022/11/23 03:37:08;;;;;;;;;;;7.10;76.40;;;;;;5042885;27;87682;-40
2022/11/23 03:39:33;;;;;;;;;;;7.10;77.00;;;;;;5044514;28;87078;-40
2022/11/23 03:41:59;;;;;;;;;;;7.10;76.20;;;;;;5043985;28;87151;-40
2022/11/23 03:44:24;;;;;;;;;;;7.10;76.40;;;;;;5043390;28;87992;-40
2022/11/23 03:46:50;;;;;;;;;;;7.10;76.40;;;;;;5044195;28;87110;-40
2022/11/23 03:49:16;;;;;;;;;;;7.10;76.30;;;;;;5043972;27;88807;-40
2022/11/23 03:51:41;;;;;;;;;;;7.10;76.30;;;;;;5044419;28;87260;-40
2022/11/23 03:54:07;;;;;;;;;;;7.10;76.70;;;;;;5044131;28;87155;-40
2022/11/23 03:56:32;;;;;;;;;;;7.10;76.10;;;;;;5046567;27;87675;-40
2022/11/23 03:58:58;;;;;;;;;;;7.10;76.50;;;;;;5043648;28;88095;-40
2022/11/23 04:01:23;;;;;;;;;;;7.10;76.40;;;;;;5043713;28;88398;-40
2022/11/23 04:03:49;;;;;;;;;;;7.10;76.50;;;;;;5043649;28;87461;-40
2022/11/23 04:06:14;;;;;;;;;;;7.10;76.60;;;;;;5043750;28;87157;-41
2022/11/23 04:08:40;;;;;;;;;;;7.10;76.50;;;;;;5043838;28;87449;-40
2022/11/23 04:11:05;;;;;;;;;;;7.10;76.70;;;;;;5043396;28;87183;-40
2022/11/23 04:13:31;;;;;;;;;;;7.10;76.60;;;;;;5043725;28;87043;-40
2022/11/23 04:15:56;;;;;;;;;;;7.10;76.70;;;;;;5044108;28;87474;-40
2022/11/23 04:18:22;;;;;;;;;;;7.10;76.60;;;;;;5046425;28;87998;-40
2022/11/23 04:20:47;;;;;;;;;;;7.10;76.50;;;;;;5043747;28;87054;-40
2022/11/23 04:23:13;;;;;;;;;;;7.10;76.60;;;;;;5042560;28;88965;-40
2022/11/23 04:25:38;;;;;;;;;;;7.10;76.60;;;;;;5043286;28;87109;-40
2022/11/23 04:28:04;;;;;;;;;;;7.10;76.70;;;;;;5043697;28;87281;-40
2022/11/23 04:30:29;;;;;;;;;;;7.10;76.90;;;;;;5042869;28;87977;-40
2022/11/23 04:32:55;;;;;;;;;;;7.10;76.70;;;;;;5043450;28;87010;-40
2022/11/23 04:35:21;;;;;;;;;;;7.10;77.00;;;;;;5043564;28;87048;-40
2022/11/23 04:37:46;;;;;;;;;;;7.10;76.60;;;;;;5043036;28;87118;-40
2022/11/23 04:40:12;;;;;;;;;;;7.10;77.00;;;;;;5046300;28;86274;-40
2022/11/23 04:42:38;;;;;;;;;;;7.10;76.60;;;;;;5042910;28;88250;-40
2022/11/23 04:45:03;;;;;;;;;;;7.10;77.20;;;;;;5042754;28;87194;-40
2022/11/23 04:47:29;;;;;;;;;;;7.00;76.80;;;;;;5042751;27;87957;-40
2022/11/23 04:49:54;;;;;;;;;;;7.10;77.00;;;;;;5042736;28;88068;-40
2022/11/23 04:52:20;;;;;;;;;;;7.10;76.70;;;;;;5043238;28;87238;-40
2022/11/23 04:54:45;;;;;;;;;;;7.10;76.80;;;;;;5043170;28;86882;-40
2022/11/23 04:57:11;;;;;;;;;;;7.10;77.30;;;;;;5042722;28;88146;-40
2022/11/23 04:59:36;;;;;;;;;;;7.10;76.50;;;;;;5042874;28;87103;-40
2022/11/23 05:02:02;;;;;;;;;;;7.10;76.40;;;;;;5045400;28;87539;-40
2022/11/23 05:04:27;;;;;;;;;;;7.10;77.20;;;;;;5043552;28;86246;-40
2022/11/23 05:06:53;;;;;;;;;;;7.10;76.70;;;;;;5042969;28;86980;-40
2022/11/23 05:09:18;;;;;;;;;;;7.10;76.70;;;;;;5042593;28;88038;-40
2022/11/23 05:11:44;;;;;;;;;;;7.10;76.90;;;;;;5042189;28;88226;-40
2022/11/23 05:14:09;;;;;;;;;;;7.10;77.00;;;;;;5042851;28;88249;-40
2022/11/23 05:16:35;;;;;;;;;;;7.10;76.80;;;;;;5042561;28;88268;-40
2022/11/23 05:19:00;;;;;;;;;;;7.10;76.80;;;;;;5043034;28;87013;-40
2022/11/23 05:21:26;;;;;;;;;;;7.10;77.10;;;;;;5042887;28;87494;-40
2022/11/23 05:23:51;;;;;;;;;;;7.10;76.50;;;;;;5045577;28;87230;-40
2022/11/23 05:26:17;;;;;;;;;;;7.10;76.90;;;;;;5042868;28;87524;-40
2022/11/23 05:28:42;;;;;;;;;;;7.10;76.90;;;;;;5043132;28;87395;-40
2022/11/23 05:31:08;;;;;;;;;;;7.10;77.00;;;;;;5042375;28;87255;-40
2022/11/23 05:33:34;;;;;;;;;;;7.10;76.90;;;;;;5042799;28;86924;-40
2022/11/23 05:35:59;;;;;;;;;;;7.20;76.90;;;;;;5041562;28;88848;-40
2022/11/23 05:38:25;;;;;;;;;;;7.10;76.70;;;;;;5042642;28;87043;-40
2022/11/23 05:40:50;;;;;;;;;;;7.20;76.80;;;;;;5042411;28;87339;-40
2022/11/23 05:43:16;;;;;;;;;;;7.10;76.50;;;;;;5044972;28;88057;-40
2022/11/23 05:45:41;;;;;;;;;;;7.10;76.70;;;;;;5042133;28;87161;-40
2022/11/23 05:48:08;;;;;;;;;;;7.10;76.90;;;;;;5042060;28;87980;-40
2022/11/23 05:50:33;;;;;;;;;;;7.10;76.80;;;;;;5042414;28;87092;-40
2022/11/23 05:52:59;;;;;;;;;;;7.10;76.70;;;;;;5042898;28;87253;-40
2022/11/23 05:55:25;;;;;;;;;;;7.10;76.50;;;;;;5041981;28;88277;-40
2022/11/23 05:57:50;;;;;;;;;;;7.20;76.70;;;;;;5042471;28;86873;-40
2022/11/23 06:00:16;;;;;;;;;;;7.20;76.70;;;;;;5042506;27;87910;-39
2022/11/23 06:02:42;;;;;;;;;;;7.20;77.10;;;;;;5045357;28;88016;-40
2022/11/23 06:05:08;;;;;;;;;;;7.10;77.00;;;;;;5048832;28;87027;-40
2022/11/23 06:07:34;;;;;;;;;;;7.10;76.80;;;;;;5045562;28;88045;-40
2022/11/23 06:09:59;;;;;;;;;;;7.10;77.00;;;;;;5045787;28;86946;-40
2022/11/23 06:12:26;;;;;;;;;;;7.10;76.90;;;;;;5045678;28;87050;-40
2022/11/23 06:14:51;;;;;;;;;;;7.20;76.90;;;;;;5045275;28;88656;-40
2022/11/23 06:17:16;;;;;;;;;;;7.20;77.00;;;;;;5045902;28;86486;-40
2022/11/23 06:19:42;;;;;;;;;;;7.20;76.90;;;;;;5045505;27;87975;-40
2022/11/23 06:22:07;;;;;;;;;;;7.20;77.00;;;;;;5045334;28;88037;-40
2022/11/23 06:24:33;;;;;;;;;;;7.20;76.70;;;;;;5044964;28;88064;-40
2022/11/23 06:26:58;;;;;;;;;;;7.20;76.70;;;;;;5047993;28;88331;-40
2022/11/23 06:29:24;;;;;;;;;;;7.20;77.00;;;;;;5045426;28;87146;-40
2022/11/23 06:31:49;;;;;;;;;;;7.20;77.00;;;;;;5045297;28;87689;-40
2022/11/23 06:34:15;;;;;;;;;;;7.20;76.90;;;;;;5045213;28;87271;-40
2022/11/23 06:36:42;;;;;;;;;;;7.20;76.70;;;;;;5045523;28;87750;-40
2022/11/23 06:39:08;;;;;;;;;;;7.20;76.70;;;;;;5045167;27;88730;-40
2022/11/23 06:41:33;;;;;;;;;;;7.20;76.80;;;;;;5045082;28;87263;-40
2022/11/23 06:43:59;;;;;;;;;;;7.20;76.80;;;;;;5044703;28;87136;-40
2022/11/23 06:46:24;;;;;;;;;;;7.20;77.00;;;;;;5045008;28;86937;-40
2022/11/23 06:48:50;;;;;;;;;;;7.20;76.80;;;;;;5046708;28;91177;-40
2022/11/23 06:51:15;;;;;;;;;;;7.20;76.60;;;;;;5045106;28;88405;-40
2022/11/23 06:53:41;;;;;;;;;;;7.30;76.80;;;;;;5044786;28;87990;-40
2022/11/23 06:56:07;;;;;;;;;;;7.30;77.00;;;;;;5045032;28;87139;-40
2022/11/23 06:58:32;;;;;;;;;;;7.30;76.60;;;;;;5045089;27;87191;-40
2022/11/23 07:01:02;;;;;;;;;;;7.30;76.70;;;;;;5044093;28;89307;-40
2022/11/23 07:03:28;;;;;;;;;;;7.30;76.50;;;;;;5044876;28;87051;-40
2022/11/23 07:05:53;;;;;;;;;;;7.30;76.60;;;;;;5045373;27;87317;-40
2022/11/23 07:08:19;;;;;;;;;;;7.30;76.50;;;;;;5044469;28;87637;-40
2022/11/23 07:10:45;;;;;;;;;;;7.30;76.40;;;;;;5047430;27;87123;-40
2022/11/23 07:13:11;;;;;;;;;;;7.30;76.40;;;;;;5042569;28;89065;-40
2022/11/23 07:15:36;;;;;;;;;;;7.30;76.70;;;;;;5044421;28;87008;-40
2022/11/23 07:18:03;;;;;;;;;;;7.30;76.80;;;;;;5044739;28;87399;-40
2022/11/23 07:20:28;;;;;;;;;;;7.20;76.90;;;;;;5044471;28;88022;-41
2022/11/23 07:23:07;;;;;;;;;;;7.20;76.80;;;;;;5044758;28;87562;-40
2022/11/23 07:25:33;;;;;;;;;;;7.30;77.00;;;;;;5044639;28;87239;-40
2022/11/23 07:27:59;;;;;;;;;;;7.20;77.00;;;;;;5044324;28;88061;-42
2022/11/23 07:30:25;;;;;;;;;;;7.20;76.80;;;;;;5044694;28;86429;-40
2022/11/23 07:32:51;;;;;;;;;;;7.20;76.70;;;;;;5047079;27;87190;-40
2022/11/23 07:35:17;;;;;;;;;;;7.20;77.10;;;;;;5044355;28;87111;-40
2022/11/23 07:37:43;;;;;;;;;;;7.20;76.90;;;;;;5043565;28;88605;-40
2022/11/23 07:40:09;;;;;;;;;;;7.20;77.50;;;;;;5043952;28;88008;-40
2022/11/23 07:42:35;;;;;;;;;;;7.30;77.10;;;;;;5044018;28;88015;-40
2022/11/23 07:45:00;;;;;;;;;;;7.30;76.70;;;;;;5043396;27;88892;-40
2022/11/23 07:47:26;;;;;;;;;;;7.30;76.90;;;;;;5043747;28;88089;-40
2022/11/23 07:49:51;;;;;;;;;;;7.30;76.90;;;;;;5044123;28;87954;-40
2022/11/23 07:52:17;;;;;;;;;;;7.30;76.80;;;;;;5046537;27;88807;-40
2022/11/23 07:54:42;;;;;;;;;;;7.30;76.70;;;;;;5044620;28;86387;-40
2022/11/23 07:57:08;;;;;;;;;;;7.40;76.90;;;;;;5042510;28;89786;-40
2022/11/23 07:59:33;;;;;;;;;;;7.40;77.00;;;;;;5043530;28;88002;-40
2022/11/23 08:01:59;;;;;;;;;;;7.30;76.60;;;;;;5043195;28;88072;-40
2022/11/23 08:04:25;;;;;;;;;;;7.30;76.80;;;;;;5043895;28;88341;-40
2022/11/23 08:06:51;;;;;;;;;;;7.30;77.00;;;;;;5043536;28;87919;-40
2022/11/23 08:09:16;;;;;;;;;;;7.30;76.80;;;;;;5043833;28;87283;-40
2022/11/23 08:11:42;;;;;;;;;;;7.30;76.90;;;;;;5043880;28;87236;-40
2022/11/23 08:14:07;;;;;;;;;;;7.30;77.20;;;;;;5046273;28;88039;-40
2022/11/23 08:16:33;;;;;;;;;;;7.30;77.30;;;;;;5043535;27;88723;-40
2022/11/23 08:18:58;;;;;;;;;;;7.20;77.50;;;;;;5043865;28;87390;-40
2022/11/23 08:21:24;;;;;;;;;;;7.30;77.60;;;;;;5043631;28;87111;-40
2022/11/23 08:23:49;;;;;;;;;;;7.30;77.50;;;;;;5043245;27;87349;-40
2022/11/23 08:26:15;;;;;;;;;;;7.20;77.60;;;;;;5042302;28;90444;-40
2022/11/23 08:28:41;;;;;;;;;;;7.30;77.40;;;;;;5043487;28;87370;-40
2022/11/23 08:31:07;;;;;;;;;;;7.30;77.30;;;;;;5043201;27;88600;-40
2022/11/23 08:33:32;;;;;;;;;;;7.20;78.00;;;;;;5043269;28;88055;-40
2022/11/23 08:36:02;;;;;;;;;;;7.10;78.00;;;;;;5046704;28;87435;-40
2022/11/23 08:38:27;;;;;;;;;;;7.10;78.40;;;;;;5042697;28;88205;-40
2022/11/23 08:40:56;;;;;;;;;;;7.10;78.70;;;;;;5043144;28;87167;-40
2022/11/23 08:43:22;;;;;;;;;;;7.10;78.70;;;;;;5043642;27;87518;-40
2022/11/23 08:45:47;;;;;;;;;;;7.30;78.00;;;;;;5042287;28;88079;-40
2022/11/23 08:48:13;;;;;;;;;;;7.40;77.30;;;;;;5043173;28;87182;-40
2022/11/23 08:50:38;;;;;;;;;;;7.50;77.10;;;;;;5042628;28;88000;-40
2022/11/23 08:53:04;;;;;;;;;;;7.40;77.30;;;;;;5042779;28;87946;-40
2022/11/23 08:55:30;;;;;;;;;;;7.40;77.70;;;;;;5042911;28;87095;-40
2022/11/23 08:57:56;;;;;;;;;;;7.50;77.10;;;;;;5045800;28;87093;-40
2022/11/23 09:00:22;;;;;;;;;;;7.40;77.50;;;;;;5042981;28;87327;-40
2022/11/23 09:02:48;;;;;;;;;;;7.30;78.10;;;;;;5043033;27;88709;-40
2022/11/23 09:05:13;;;;;;;;;;;7.40;78.30;;;;;;5042550;28;87239;-40
2022/11/23 09:07:39;;;;;;;;;;;7.60;77.50;;;;;;5043527;28;86315;-40
2022/11/23 09:10:05;;;;;;;;;;;7.70;76.90;;;;;;5043045;28;87404;-40
2022/11/23 09:12:31;;;;;;;;;;;7.70;77.20;;;;;;5042328;28;89311;-40
2022/11/23 09:14:57;;;;;;;;;;;7.70;77.10;;;;;;5041940;28;88121;-40
2022/11/23 09:17:22;;;;;;;;;;;7.70;77.00;;;;;;5042942;28;88199;-40
2022/11/23 09:19:49;;;;;;;;;;;7.70;77.10;;;;;;5045647;28;88076;-40
2022/11/23 09:22:14;;;;;;;;;;;7.70;76.90;;;;;;5042510;27;87819;-40
2022/11/23 09:24:40;;;;;;;;;;;7.80;77.10;;;;;;5042534;28;87219;-40
2022/11/23 09:27:05;;;;;;;;;;;7.70;77.40;;;;;;5042842;28;87168;-40
2022/11/23 09:29:31;;;;;;;;;;;7.70;77.30;;;;;;5042562;28;87353;-40
2022/11/23 09:31:56;;;;;;;;;;;7.70;77.50;;;;;;5042945;28;87407;-40
2022/11/23 09:34:22;;;;;;;;;;;7.80;77.40;;;;;;5042705;27;87254;-40
2022/11/23 09:36:47;;;;;;;;;;;7.80;77.30;;;;;;5045729;27;88240;-40
2022/11/23 09:39:13;;;;;;;;;;;7.80;77.50;;;;;;5045314;28;89083;-40
2022/11/23 09:41:54;;;;;;;;;;;7.80;77.20;;;;;;5048910;28;87466;-40
2022/11/23 09:44:40;;;;;;;;;;;7.70;77.40;;;;;;5045230;28;88537;-40
2022/11/23 09:47:24;;;;;;;;;;;7.80;77.60;;;;;;5023835;28;87447;-40
2022/11/23 09:49:52;;;;;;;;;;;7.80;77.50;;;;;;5046341;27;87317;-40
2022/11/23 09:52:19;;;;;;;;;;;7.90;77.50;;;;;;5045851;28;88138;-40
2022/11/23 09:54:46;;;;;;;;;;;7.90;77.10;;;;;;5045779;28;87080;-40
2022/11/23 09:57:15;;;;;;;;;;;7.90;77.30;;;;;;5046439;28;87209;-40
2022/11/23 09:59:43;;;;;;;;;;;7.90;77.70;;;;;;5045499;28;88119;-40
2022/11/23 10:02:20;;;;;;;;;;;7.90;77.40;;;;;;5048560;28;87087;-40
2022/11/23 10:04:45;;;;;;;;;;;7.90;77.60;;;;;;5044972;28;88951;-40
2022/11/23 10:07:16;;;;;;;;;;;8.00;77.50;;;;;;5045513;28;87142;-40
2022/11/23 10:10:00;;;;;;;;;;;8.00;77.50;;;;;;5045940;27;87305;-40
2022/11/23 10:12:35;;;;;;;;;;;8.10;77.60;;;;;;5045213;27;88457;-40
2022/11/23 10:15:03;;;;;;;;;;;8.10;77.60;;;;;;5045608;28;87136;-40
2022/11/23 10:17:29;;;;;;;;;;;8.00;77.30;;;;;;5045360;28;88660;-40
2022/11/23 10:20:09;;;;;;;;;;;8.00;77.50;;;;;;5045162;28;89261;-40
2022/11/23 10:22:50;;;;;;;;;;;8.00;77.70;;;;;;5046064;28;86367;-40
2022/11/23 10:25:17;;;;;;;;;;;8.10;77.70;;;;;;5047774;28;87007;-40
2022/11/23 10:27:42;;;;;;;;;;;8.10;77.60;;;;;;5045234;28;86865;-40
2022/11/23 10:30:11;;;;;;;;;;;8.10;77.80;;;;;;5044500;27;87925;-40
2022/11/23 10:32:41;;;;;;;;;;;8.10;77.80;;;;;;5044671;28;87995;-40
2022/11/23 10:35:14;;;;;;;;;;;8.10;77.70;;;;;;5045155;28;86990;-40
2022/11/23 10:37:40;;;;;;;;;;;8.20;77.60;;;;;;5045214;27;87273;-40
2022/11/23 10:40:25;;;;;;;;;;;8.20;77.60;;;;;;5044642;28;89029;-40
2022/11/23 10:42:53;;;;;;;;;;;8.20;77.60;;;;;;5044790;28;87112;-40
2022/11/23 10:45:23;;;;;;;;;;;8.20;77.80;;;;;;5044650;28;87468;-40
2022/11/23 10:47:49;;;;;;;;;;;8.10;78.20;;;;;;5047730;27;86963;-40
2022/11/23 10:50:44;;;;;;;;;;;8.20;78.20;;;;;;5045303;28;86969;-40
2022/11/23 10:53:18;;;;;;;;;;;8.20;77.90;;;;;;5034796;28;89278;-40
2022/11/23 10:55:46;;;;;;;;;;;8.30;77.90;;;;;;5044647;28;87831;-40
2022/11/23 10:58:34;;;;;;;;;;;8.30;77.90;;;;;;5045046;28;88272;-40
2022/11/23 11:01:01;;;;;;;;;;;8.30;77.90;;;;;;5044747;28;87690;-40
2022/11/23 11:03:29;;;;;;;;;;;8.30;77.90;;;;;;5044972;28;87059;-40
2022/11/23 11:05:56;;;;;;;;;;;8.30;77.70;;;;;;5044940;27;87324;-40
2022/11/23 11:08:23;;;;;;;;;;;8.30;77.90;;;;;;5044516;28;87976;-40
2022/11/23 11:10:58;;;;;;;;;;;8.30;78.00;;;;;;5047481;28;87133;-40
2022/11/23 11:13:25;;;;;;;;;;;8.40;78.00;;;;;;5045161;28;87232;-40
2022/11/23 11:15:52;;;;;;;;;;;8.40;77.90;;;;;;5044537;28;87066;-40
2022/11/23 11:18:18;;;;;;;;;;;8.40;78.10;;;;;;5044378;27;88729;-40
2022/11/23 11:20:44;;;;;;;;;;;8.40;78.10;;;;;;5043506;28;88961;-40
2022/11/23 11:23:17;;;;;;;;;;;8.40;78.20;;;;;;5044489;28;87108;-40
2022/11/23 11:25:43;;;;;;;;;;;8.40;78.20;;;;;;5044564;28;87385;-40
2022/11/23 11:28:17;;;;;;;;;;;8.40;78.20;;;;;;5044045;28;88291;-40
2022/11/23 11:30:46;;;;;;;;;;;8.40;78.10;;;;;;5044310;28;87115;-40
2022/11/23 11:33:25;;;;;;;;;;;8.40;78.10;;;;;;5046797;27;88542;-40
2022/11/23 11:35:52;;;;;;;;;;;8.50;78.10;;;;;;5044085;28;87053;-40
2022/11/23 11:38:32;;;;;;;;;;;8.50;78.00;;;;;;5044883;27;87219;-40
2022/11/23 11:41:01;;;;;;;;;;;8.40;78.20;;;;;;5043825;28;88480;-40
2022/11/23 11:43:26;;;;;;;;;;;8.30;78.60;;;;;;5044028;28;87169;-40
2022/11/23 11:46:01;;;;;;;;;;;8.40;78.50;;;;;;5043562;27;87930;-40
2022/11/23 11:48:32;;;;;;;;;;;8.50;78.40;;;;;;5043555;28;89737;-40
2022/11/23 11:51:18;;;;;;;;;;;8.50;78.30;;;;;;5044256;28;86922;-40
2022/11/23 11:54:19;;;;;;;;;;;8.50;78.10;;;;;;5046041;28;87327;-40
2022/11/23 11:56:45;;;;;;;;;;;8.50;78.30;;;;;;5001237;28;87239;-40
2022/11/23 11:59:23;;;;;;;;;;;8.50;78.10;;;;;;5034157;28;88648;-40
2022/11/23 12:01:49;;;;;;;;;;;8.50;78.10;;;;;;5043610;28;88070;-40
2022/11/23 12:04:34;;;;;;;;;;;8.60;78.00;;;;;;5044150;28;86261;-40
2022/11/23 12:07:18;;;;;;;;;;;8.60;77.90;;;;;;5044222;27;86964;-40
2022/11/23 12:09:45;;;;;;;;;;;8.60;78.00;;;;;;5043512;27;87967;-40
2022/11/23 12:12:13;;;;;;;;;;;8.60;78.10;;;;;;5043031;28;88045;-40
2022/11/23 12:14:39;;;;;;;;;;;8.60;78.10;;;;;;5043560;27;88063;-40
2022/11/23 12:17:08;;;;;;;;;;;8.70;78.00;;;;;;5046299;28;86939;-40
2022/11/23 12:19:38;;;;;;;;;;;8.70;78.00;;;;;;5043445;28;87390;-41
2022/11/23 12:22:22;;;;;;;;;;;8.70;78.00;;;;;;5043053;28;88131;-40
2022/11/23 12:24:50;;;;;;;;;;;8.70;78.20;;;;;;5043500;28;87459;-40
2022/11/23 12:27:38;;;;;;;;;;;8.70;78.00;;;;;;5043330;28;87424;-40
2022/11/23 12:30:24;;;;;;;;;;;8.70;78.20;;;;;;5043945;28;87344;-40
2022/11/23 12:32:50;;;;;;;;;;;8.70;78.10;;;;;;5043296;27;87118;-40
2022/11/23 12:35:27;;;;;;;;;;;8.80;78.10;;;;;;5043377;27;87582;-40
2022/11/23 12:38:19;;;;;;;;;;;8.80;78.10;;;;;;5042118;28;89187;-40
2022/11/23 12:41:02;;;;;;;;;;;8.80;78.10;;;;;;5046299;28;86994;-40
2022/11/23 12:43:30;;;;;;;;;;;8.80;78.20;;;;;;5042848;28;88050;-40
2022/11/23 12:46:06;;;;;;;;;;;8.80;78.20;;;;;;5042760;28;86983;-40
2022/11/23 12:48:32;;;;;;;;;;;8.80;78.20;;;;;;5043482;28;87479;-40
2022/11/23 12:50:57;;;;;;;;;;;8.80;78.10;;;;;;5042806;28;87864;-40
2022/11/23 12:53:34;;;;;;;;;;;8.80;78.30;;;;;;5043431;28;86920;-40
2022/11/23 12:56:09;;;;;;;;;;;8.80;78.30;;;;;;5043880;28;87312;-41
2022/11/23 12:58:36;;;;;;;;;;;8.90;78.20;;;;;;5042857;28;87757;-40
2022/11/23 13:01:01;;;;;;;;;;;8.90;78.20;;;;;;5042977;28;87144;-40
2022/11/23 13:03:33;;;;;;;;;;;8.90;78.30;;;;;;5044973;27;88110;-41
2022/11/23 13:06:03;;;;;;;;;;;8.90;78.30;;;;;;5042958;28;87152;-40
2022/11/23 13:08:29;;;;;;;;;;;8.90;78.30;;;;;;5043124;27;87319;-40
2022/11/23 13:10:54;;;;;;;;;;;8.90;78.30;;;;;;5042625;27;88246;-40
2022/11/23 13:13:28;;;;;;;;;;;8.90;78.30;;;;;;5042816;28;87127;-40
2022/11/23 13:16:02;;;;;;;;;;;8.90;78.30;;;;;;5042751;27;88443;-40
2022/11/23 13:18:46;;;;;;;;;;;8.90;78.30;;;;;;5042684;28;88074;-40
2022/11/23 13:21:21;;;;;;;;;;;8.90;78.30;;;;;;5043275;28;86362;-40
2022/11/23 13:23:47;;;;;;;;;;;8.90;78.30;;;;;;5042774;27;87097;-40
2022/11/23 13:26:13;;;;;;;;;;;8.90;78.30;;;;;;5045374;28;88118;-40
2022/11/23 13:28:38;;;;;;;;;;;9.00;78.40;;;;;;5042119;28;87957;-40
2022/11/23 13:31:13;;;;;;;;;;;8.90;78.30;;;;;;5042067;28;89218;-40
2022/11/23 13:33:39;;;;;;;;;;;8.90;78.30;;;;;;5042629;28;87113;-40
2022/11/23 13:36:06;;;;;;;;;;;9.00;78.30;;;;;;5042571;28;87425;-40
2022/11/23 13:38:35;;;;;;;;;;;9.00;78.30;;;;;;5042193;28;88018;-40
2022/11/23 13:41:01;;;;;;;;;;;9.00;78.30;;;;;;5042368;28;87284;-40
2022/11/23 13:43:35;;;;;;;;;;;9.00;78.80;;;;;;5042384;27;87184;-40
2022/11/23 13:46:20;;;;;;;;;;;9.00;78.40;;;;;;5042185;28;87409;-40
2022/11/23 13:48:46;;;;;;;;;;;9.00;78.20;;;;;;5044958;27;87121;-40
2022/11/23 13:51:21;;;;;;;;;;;9.00;78.20;;;;;;5042185;28;87695;-40
2022/11/23 13:53:51;;;;;;;;;;;9.00;78.20;;;;;;5041842;28;87942;-40
2022/11/23 13:56:26;;;;;;;;;;;9.00;78.20;;;;;;5042248;27;88304;-40
2022/11/23 13:58:56;;;;;;;;;;;9.00;78.10;;;;;;5041831;28;88065;-40
2022/11/23 14:01:41;;;;;;;;;;;9.00;78.30;;;;;;5042017;28;87120;-40
2022/11/23 14:04:18;;;;;;;;;;;9.10;78.20;;;;;;5020252;27;87421;-40
2022/11/23 14:06:46;;;;;;;;;;;9.10;78.20;;;;;;5041923;28;88031;-40
2022/11/23 14:09:15;;;;;;;;;;;9.10;78.20;;;;;;5045166;28;87125;-40
2022/11/23 14:12:00;;;;;;;;;;;9.10;78.20;;;;;;5041863;28;87031;-40
2022/11/23 14:14:29;;;;;;;;;;;9.10;78.20;;;;;;5033880;28;87308;-40
2022/11/23 14:17:00;;;;;;;;;;;9.10;78.20;;;;;;5041944;27;87302;-40
2022/11/23 14:19:42;;;;;;;;;;;9.10;78.20;;;;;;5041096;28;89121;-40
2022/11/23 14:22:07;;;;;;;;;;;9.10;78.30;;;;;;5044307;27;86985;-40
2022/11/23 14:24:43;;;;;;;;;;;9.10;78.40;;;;;;5045115;28;88814;-40
2022/11/23 14:27:27;;;;;;;;;;;9.10;78.40;;;;;;5045362;28;87673;-40
2022/11/23 14:30:05;;;;;;;;;;;9.10;78.40;;;;;;5045479;27;87236;-40
2022/11/23 14:32:42;;;;;;;;;;;9.10;78.30;;;;;;5048333;27;87316;-40
2022/11/23 14:35:21;;;;;;;;;;;9.10;78.40;;;;;;5045401;28;87187;-40
2022/11/23 14:38:05;;;;;;;;;;;9.10;78.20;;;;;;5045556;27;87462;-40